Time;durP1;ratioP1;P1;durP2;ratioP2;P2;SDS_P1;SDS_P2;PMS_P1;PMS_P2;Temp;Humidity;BMP_temperature;BMP_pressure;BME280_temperature;BME280_humidity;BME280_pressure;Samples;Min_cycle;Max_cycle;Signal;HPM_P1;HPM_P2
2023/03/04 00:00:23;;;;;;;32.33;4.63;;;4.30;99.90;;;2.70;100.00;101159.00;4987795;28;20053;-75
2023/03/04 00:02:49;;;;;;;49.47;6.07;;;4.30;99.90;;;2.74;100.00;101166.75;4983525;28;20039;-76
2023/03/04 00:05:15;;;;;;;39.33;6.03;;;4.30;99.90;;;2.74;100.00;101164.16;4978287;28;20026;-76
2023/03/04 00:07:40;;;;;;;40.15;4.97;;;4.30;99.90;;;2.74;100.00;101160.69;4991270;28;20065;-76
2023/03/04 00:10:07;;;;;;;21.75;3.55;;;4.40;99.90;;;2.76;100.00;101162.41;4956839;28;20049;-77
2023/03/04 00:12:33;;;;;;;33.63;5.50;;;4.40;99.90;;;2.78;100.00;101162.41;4978823;28;20487;-76
2023/03/04 00:14:58;;;;;;;34.22;4.53;;;4.40;99.90;;;2.77;100.00;101160.69;4968357;28;20077;-76
2023/03/04 00:17:24;;;;;;;38.45;4.72;;;4.40;99.90;;;2.79;100.00;101153.75;4997483;28;20197;-77
2023/03/04 00:19:50;;;;;;;52.03;6.05;;;4.40;99.90;;;2.84;100.00;101151.97;5006289;28;20118;-76
2023/03/04 00:22:16;;;;;;;40.95;5.68;;;4.50;99.90;;;2.88;100.00;101143.25;4995772;28;20117;-76
2023/03/04 00:24:41;;;;;;;37.85;4.97;;;4.90;99.90;;;2.93;100.00;101149.28;4970443;28;20049;-77
2023/03/04 00:27:07;;;;;;;32.20;4.30;;;4.50;99.90;;;2.86;100.00;101145.00;4961837;28;20046;-76
2023/03/04 00:29:33;;;;;;;35.78;4.40;;;4.50;99.90;;;2.94;100.00;101148.41;4976911;28;20035;-75
2023/03/04 00:31:59;;;;;;;24.13;3.67;;;4.50;99.90;;;2.95;100.00;101137.13;4979773;28;22337;-76
2023/03/04 00:34:27;;;;;;;30.77;4.13;;;4.50;99.90;;;2.98;100.00;101149.22;4966459;28;20033;-76
2023/03/04 00:36:53;;;;;;;49.78;5.38;;;4.60;99.90;;;3.03;100.00;101143.13;4986998;28;20057;-77
2023/03/04 00:39:19;;;;;;;28.38;4.35;;;4.50;99.90;;;2.97;100.00;101148.38;4981086;28;20108;-76
2023/03/04 00:41:45;;;;;;;36.78;4.70;;;4.50;99.90;;;2.97;100.00;101140.56;4953494;28;20033;-76
2023/03/04 00:44:11;;;;;;;38.70;5.10;;;4.60;99.90;;;3.01;100.00;101144.88;4988794;28;20113;-76
2023/03/04 00:46:37;;;;;;;35.22;3.70;;;4.60;99.90;;;3.03;100.00;101137.91;4993887;28;20133;-76
2023/03/04 00:49:05;;;;;;;39.05;6.32;;;4.60;99.90;;;3.07;100.00;101133.56;4972468;28;20037;-76
2023/03/04 00:51:31;;;;;;;38.05;4.57;;;4.60;99.90;;;3.03;100.00;101131.84;4966373;28;20038;-76
2023/03/04 00:53:57;;;;;;;37.92;5.03;;;4.60;99.90;;;3.05;100.00;101125.75;4975486;28;20038;-77
2023/03/04 00:56:23;;;;;;;42.55;5.00;;;4.60;99.90;;;3.07;100.00;101121.41;4985695;28;20086;-76
2023/03/04 00:58:48;;;;;;;33.40;3.80;;;4.60;99.90;;;3.04;100.00;101124.03;4967115;28;20031;-76
2023/03/04 01:01:14;;;;;;;27.85;4.32;;;4.60;99.90;;;3.05;100.00;101130.09;4980403;28;20042;-76
2023/03/04 01:03:41;;;;;;;34.42;3.63;;;4.60;99.90;;;3.05;100.00;101114.50;4987521;28;20479;-77
2023/03/04 01:06:07;;;;;;;30.33;4.38;;;4.60;99.90;;;3.07;100.00;101113.59;4981570;28;20043;-77
2023/03/04 01:08:33;;;;;;;9.45;2.60;;;4.70;99.90;;;3.05;100.00;101107.53;4995204;28;20388;-77
2023/03/04 01:10:59;;;;;;;26.95;3.08;;;4.70;99.90;;;3.10;100.00;101104.03;4989991;28;20086;-76
2023/03/04 01:13:25;;;;;;;29.50;4.70;;;4.70;99.90;;;3.15;100.00;101107.44;4995401;28;20026;-77
2023/03/04 01:15:50;;;;;;;26.55;3.65;;;4.70;99.90;;;3.09;100.00;101100.59;4995038;28;20045;-77
2023/03/04 01:18:16;;;;;;;26.95;2.88;;;4.70;99.90;;;3.07;100.00;101098.00;4988167;28;20031;-75
2023/03/04 01:20:42;;;;;;;30.67;3.58;;;4.70;99.90;;;3.11;100.00;101092.75;4995007;28;20037;-77
2023/03/04 01:23:08;;;;;;;47.70;5.13;;;4.70;99.90;;;3.11;100.00;101103.16;4970715;28;20050;-76
2023/03/04 01:25:34;;;;;;;27.45;3.30;;;4.70;99.90;;;3.13;100.00;101091.00;4979012;28;20133;-78
2023/03/04 01:27:59;;;;;;;13.57;2.55;;;4.70;99.90;;;3.10;100.00;101091.03;4970533;28;20041;-77
2023/03/04 01:30:25;;;;;;;19.13;2.90;;;4.70;99.90;;;3.09;100.00;101082.38;4968336;28;20590;-76
2023/03/04 01:32:54;;;;;;;24.52;2.95;;;4.70;99.90;;;3.10;100.00;101085.81;4979332;28;20113;-77
2023/03/04 01:35:19;;;;;;;28.25;3.55;;;4.70;99.90;;;3.13;100.00;101070.19;4990054;28;20042;-76
2023/03/04 01:37:45;;;;;;;16.48;2.40;;;4.70;99.90;;;3.11;100.00;101078.03;4980845;28;20045;-77
2023/03/04 01:40:12;;;;;;;23.40;3.45;;;4.70;99.90;;;3.13;100.00;101070.19;4995642;28;20038;-77
2023/03/04 01:42:38;;;;;;;30.10;3.63;;;4.80;99.90;;;3.18;100.00;101076.22;4996124;28;20069;-76
2023/03/04 01:45:08;;;;;;;27.30;3.10;;;4.70;99.90;;;3.08;100.00;101071.06;4967003;28;20487;-77
2023/03/04 01:47:35;;;;;;;24.33;3.58;;;4.70;99.90;;;3.08;100.00;101075.44;4989328;28;20038;-76
2023/03/04 01:50:09;;;;;;;39.35;3.85;;;4.70;99.90;;;3.18;100.00;101071.88;5006483;28;20038;-76
2023/03/04 01:52:37;;;;;;;40.53;3.63;;;4.80;99.90;;;3.25;100.00;101064.84;4980349;28;20040;-77
2023/03/04 01:55:20;;;;;;;36.25;3.65;;;4.80;99.90;;;3.22;100.00;101070.09;4995375;28;20046;-76
2023/03/04 01:57:49;;;;;;;37.00;4.00;;;4.80;99.90;;;3.21;100.00;101064.00;4970874;28;20117;-77
2023/03/04 02:00:30;;;;;;;26.23;3.17;;;4.80;99.90;;;3.19;100.00;101059.69;4989821;28;21070;-77
2023/03/04 02:03:11;;;;;;;31.15;4.05;;;4.80;99.90;;;3.22;100.00;101049.28;5008500;28;20039;-77
2023/03/04 02:05:41;;;;;;;26.38;2.65;;;4.80;99.90;;;3.21;100.00;101048.38;4998163;28;20126;-76
2023/03/04 02:08:09;;;;;;;34.97;3.70;;;4.80;99.90;;;3.25;100.00;101049.22;4978356;28;20038;-76
2023/03/04 02:10:35;;;;;;;31.50;3.72;;;4.80;99.90;;;3.29;100.00;101056.13;4997761;28;20042;-76
2023/03/04 02:13:02;;;;;;;24.27;3.63;;;4.80;99.90;;;3.25;100.00;101054.44;4997470;28;20026;-76
2023/03/04 02:15:29;;;;;;;21.60;2.72;;;4.80;99.90;;;3.19;100.00;101047.53;4972931;28;20042;-76
2023/03/04 02:17:58;;;;;;;16.00;2.40;;;4.80;99.90;;;3.21;100.00;101047.53;4963848;28;20092;-77
2023/03/04 02:21:01;;;;;;;20.23;2.67;;;4.80;99.90;;;3.28;100.00;101046.59;4976700;28;20043;-76
2023/03/04 02:23:45;;;;;;;25.73;3.15;;;4.90;99.90;;;3.31;100.00;101054.38;4982303;28;20039;-76
2023/03/04 02:26:19;;;;;;;25.55;2.83;;;4.90;99.90;;;3.33;100.00;101046.56;4985921;28;20049;-76
2023/03/04 02:28:49;;;;;;;26.25;3.15;;;4.90;99.90;;;3.35;100.00;101042.16;4981238;28;20042;-76
2023/03/04 02:31:23;;;;;;;22.95;4.00;;;4.90;99.90;;;3.35;100.00;101042.16;4960387;28;20034;-76
2023/03/04 02:33:53;;;;;;;20.70;2.40;;;4.90;99.90;;;3.33;100.00;101044.81;4997882;28;20034;-77
2023/03/04 02:36:20;;;;;;;16.23;2.03;;;4.90;99.90;;;3.31;100.00;101033.56;4983092;28;20034;-76
2023/03/04 02:38:47;;;;;;;28.55;3.58;;;4.90;99.90;;;3.36;100.00;101042.16;4993309;28;20042;-77
2023/03/04 02:41:18;;;;;;;21.42;2.63;;;5.00;99.90;;;3.37;100.00;101033.47;4967777;28;22870;-76
2023/03/04 02:43:52;;;;;;;20.27;3.10;;;5.00;99.90;;;3.39;100.00;101036.03;4957093;28;20577;-76
2023/03/04 02:46:19;;;;;;;25.63;2.70;;;5.00;99.90;;;3.37;100.00;101037.81;4983120;28;20041;-76
2023/03/04 02:48:45;;;;;;;8.80;1.67;;;5.00;99.90;;;3.30;100.00;101026.59;4990724;28;20510;-76
2023/03/04 02:51:14;;;;;;;17.88;2.40;;;5.00;99.90;;;3.31;100.00;101017.94;5001374;28;20037;-78
2023/03/04 02:53:39;;;;;;;20.92;3.40;;;5.00;99.90;;;3.38;100.00;101013.50;4986176;28;20085;-76
2023/03/04 02:56:06;;;;;;;24.23;2.22;;;5.00;99.90;;;3.41;100.00;101027.38;4968232;28;20109;-76
2023/03/04 02:58:32;;;;;;;22.35;2.72;;;5.00;99.90;;;3.43;100.00;101015.16;4994655;28;20117;-77
2023/03/04 03:00:57;;;;;;;17.08;2.80;;;5.00;99.90;;;3.43;100.00;101012.56;4988936;28;20130;-77
2023/03/04 03:03:24;;;;;;;12.98;2.28;;;5.00;99.90;;;3.38;100.00;101011.75;4981912;28;20136;-77
2023/03/04 03:05:50;;;;;;;18.17;2.47;;;5.00;99.90;;;3.42;100.00;101000.44;4996217;28;20030;-78
2023/03/04 03:08:16;;;;;;;14.40;2.35;;;5.00;99.90;;;3.40;100.00;101007.41;4995581;28;20360;-78
2023/03/04 03:10:42;;;;;;;16.02;2.00;;;5.00;99.90;;;3.40;100.00;101001.34;4979904;28;20050;-77
2023/03/04 03:13:07;;;;;;;14.40;2.58;;;5.00;99.90;;;3.40;100.00;101007.41;4990251;28;20037;-76
2023/03/04 03:15:33;;;;;;;11.13;1.90;;;5.00;99.90;;;3.38;100.00;100997.91;4997705;28;20050;-77
2023/03/04 03:17:59;;;;;;;13.00;2.05;;;5.00;99.90;;;3.37;100.00;101006.56;4952891;28;20562;-77
2023/03/04 03:20:25;;;;;;;8.50;2.03;;;5.00;99.90;;;3.37;100.00;100997.03;4979408;28;20043;-77
2023/03/04 03:22:51;;;;;;;18.27;2.40;;;5.00;99.90;;;3.36;100.00;100997.91;4976064;28;20035;-77
2023/03/04 03:25:16;;;;;;;12.88;2.30;;;5.00;99.90;;;3.40;100.00;100999.59;5007095;28;20043;-77
2023/03/04 03:27:42;;;;;;;17.15;3.00;;;5.00;99.90;;;3.41;100.00;100988.31;4997539;28;20058;-76
2023/03/04 03:30:14;;;;;;;18.65;2.53;;;5.00;99.90;;;3.45;100.00;100999.53;4996718;28;20038;-76
2023/03/04 03:32:40;;;;;;;13.75;2.70;;;5.00;99.90;;;3.44;100.00;100992.63;4978325;28;20035;-76
2023/03/04 03:35:06;;;;;;;11.57;2.38;;;5.00;99.90;;;3.43;100.00;100996.09;4996953;28;20037;-76
2023/03/04 03:37:32;;;;;;;9.68;1.90;;;5.00;99.90;;;3.39;100.00;100997.88;4997488;28;20104;-77
2023/03/04 03:39:57;;;;;;;10.73;2.10;;;5.00;99.90;;;3.36;100.00;100995.31;4996074;28;20034;-76
2023/03/04 03:42:23;;;;;;;18.92;3.22;;;5.00;99.90;;;3.37;100.00;100989.22;4980162;28;20041;-76
2023/03/04 03:44:51;;;;;;;12.18;2.22;;;5.00;99.90;;;3.38;100.00;100988.34;4982921;28;20034;-77
2023/03/04 03:47:17;;;;;;;13.85;2.33;;;5.00;99.90;;;3.39;100.00;100984.88;4990859;28;20026;-76
2023/03/04 03:49:43;;;;;;;9.35;1.92;;;5.00;99.90;;;3.40;100.00;100978.78;4983682;28;20047;-77
2023/03/04 03:52:09;;;;;;;15.65;3.00;;;5.00;99.90;;;3.40;100.00;100989.19;4990402;28;20165;-77
2023/03/04 03:54:35;;;;;;;22.27;3.47;;;5.00;99.90;;;3.42;100.00;100977.00;4997004;28;20034;-77
2023/03/04 03:57:01;;;;;;;10.38;2.15;;;5.00;99.90;;;3.39;100.00;100983.97;4982334;28;20041;-76
2023/03/04 03:59:27;;;;;;;11.82;2.13;;;5.00;99.90;;;3.37;100.00;100978.81;4996110;28;20215;-77
2023/03/04 04:01:53;;;;;;;10.77;2.10;;;5.00;99.90;;;3.39;100.00;100979.66;4985811;28;20054;-77
2023/03/04 04:04:21;;;;;;;9.90;1.67;;;5.00;99.90;;;3.37;100.00;100975.34;4992812;28;20398;-77
2023/03/04 04:06:47;;;;;;;8.10;1.95;;;5.00;99.90;;;3.39;100.00;100969.25;4994212;28;20064;-77
2023/03/04 04:09:13;;;;;;;18.10;2.58;;;5.00;99.90;;;3.40;100.00;100968.34;4980259;28;20088;-76
2023/03/04 04:11:38;;;;;;;12.70;1.77;;;5.00;99.90;;;3.42;100.00;100974.41;4972772;28;20026;-77
2023/03/04 04:14:04;;;;;;;12.65;2.25;;;5.10;99.90;;;3.46;100.00;100970.03;4982038;28;20549;-76
2023/03/04 04:16:30;;;;;;;17.05;2.95;;;5.10;99.90;;;3.54;100.00;100969.91;4974461;28;20034;-77
2023/03/04 04:18:56;;;;;;;21.27;3.35;;;5.10;99.90;;;3.56;100.00;100971.59;4979861;28;20058;-76
2023/03/04 04:21:24;;;;;;;18.38;2.70;;;5.10;99.90;;;3.55;100.00;100974.25;4979476;28;20039;-76
2023/03/04 04:23:50;;;;;;;8.02;1.98;;;5.10;99.90;;;3.56;100.00;100965.53;4991818;28;20379;-76
2023/03/04 04:26:16;;;;;;;10.30;1.98;;;5.10;99.90;;;3.53;100.00;100966.44;4995028;28;20034;-77
2023/03/04 04:28:42;;;;;;;8.95;2.08;;;5.20;99.90;;;3.59;100.00;100970.72;4989249;28;20118;-76
2023/03/04 04:31:08;;;;;;;11.07;1.88;;;5.10;99.90;;;3.56;100.00;100968.16;5002068;28;20105;-76
2023/03/04 04:33:35;;;;;;;17.92;3.08;;;5.20;99.90;;;3.57;100.00;100954.25;4980589;28;20035;-77
2023/03/04 04:36:03;;;;;;;12.10;2.35;;;5.20;99.90;;;3.56;100.00;100965.53;4993719;28;20030;-76
2023/03/04 04:38:29;;;;;;;11.90;1.88;;;5.20;99.90;;;3.57;100.00;100957.72;4971855;28;20046;-76
2023/03/04 04:40:57;;;;;;;10.07;3.13;;;5.10;99.90;;;3.55;100.00;100956.88;4980445;28;20093;-76
2023/03/04 04:43:24;;;;;;;12.90;1.67;;;5.20;99.90;;;3.57;100.00;100962.06;4964518;28;20034;-76
2023/03/04 04:45:50;;;;;;;17.15;2.75;;;5.20;99.90;;;3.54;100.00;100965.56;4981161;28;20053;-76
2023/03/04 04:48:16;;;;;;;12.63;2.15;;;5.20;99.90;;;3.57;100.00;100965.53;5005001;28;20594;-76
2023/03/04 04:50:42;;;;;;;12.02;1.83;;;5.20;99.90;;;3.58;100.00;100958.56;4987488;28;20031;-76
2023/03/04 04:53:12;;;;;;;18.55;2.83;;;5.20;99.90;;;3.61;100.00;100961.16;4987726;28;20034;-77
2023/03/04 04:55:38;;;;;;;10.52;1.80;;;5.20;99.90;;;3.56;100.00;100955.13;4988242;28;20031;-77
2023/03/04 04:58:06;;;;;;;10.90;1.67;;;5.20;99.90;;;3.59;100.00;100962.91;4999595;28;20042;-77
2023/03/04 05:00:32;;;;;;;11.00;1.88;;;5.20;99.90;;;3.59;100.00;100962.91;4996633;28;20054;-76
2023/03/04 05:02:58;;;;;;;12.70;2.85;;;5.20;99.90;;;3.57;100.00;100951.66;4980737;28;20042;-77
2023/03/04 05:05:23;;;;;;;18.38;3.25;;;5.20;99.90;;;3.60;100.00;100954.19;4972820;28;20110;-77
2023/03/04 05:07:49;;;;;;;21.20;2.70;;;5.20;99.90;;;3.59;100.00;100955.09;4964025;28;20184;-76
2023/03/04 05:10:15;;;;;;;14.98;1.95;;;5.20;99.90;;;3.61;100.00;100962.00;4989013;28;20113;-77
2023/03/04 05:12:43;;;;;;;12.77;2.22;;;5.20;99.90;;;3.62;100.00;100958.50;4970251;28;20034;-76
2023/03/04 05:15:10;;;;;;;19.75;2.47;;;5.20;99.90;;;3.63;100.00;100956.78;4966873;28;20035;-77
2023/03/04 05:17:36;;;;;;;11.55;1.80;;;5.20;99.90;;;3.57;100.00;100951.66;4978264;28;20407;-76
2023/03/04 05:20:05;;;;;;;10.50;2.40;;;5.20;99.90;;;3.61;100.00;100955.94;4978401;28;20054;-77
2023/03/04 05:22:31;;;;;;;14.05;1.80;;;5.20;99.90;;;3.60;100.00;100954.19;4976969;28;20030;-77
2023/03/04 05:24:57;;;;;;;14.07;2.10;;;5.20;99.90;;;3.61;100.00;100946.38;4988598;28;20040;-77
2023/03/04 05:27:23;;;;;;;18.55;2.88;;;5.20;99.90;;;3.59;100.00;100952.50;4987394;28;20038;-77
2023/03/04 05:29:49;;;;;;;12.65;2.25;;;5.20;99.90;;;3.61;100.00;100958.53;4977504;28;20035;-76
2023/03/04 05:32:15;;;;;;;10.57;1.92;;;5.20;99.90;;;3.60;100.00;100944.63;4995798;28;20125;-78
2023/03/04 05:34:40;;;;;;;10.90;1.88;;;5.20;99.90;;;3.59;100.00;100948.16;4955038;28;20046;-76
2023/03/04 05:37:06;;;;;;;8.05;1.38;;;5.20;99.90;;;3.59;100.00;100952.50;4988052;28;20532;-76
2023/03/04 05:39:32;;;;;;;18.95;2.97;;;5.20;99.90;;;3.63;100.00;100948.97;4984229;28;20049;-77
2023/03/04 05:41:58;;;;;;;8.80;1.73;;;5.20;99.90;;;3.58;100.00;100949.00;4987204;28;20035;-77
2023/03/04 05:44:23;;;;;;;15.95;2.67;;;5.20;99.90;;;3.60;100.00;100951.59;4984157;28;20037;-77
2023/03/04 05:46:49;;;;;;;14.48;2.00;;;5.20;99.90;;;3.61;100.00;100962.00;4984513;28;20125;-76
2023/03/04 05:49:15;;;;;;;18.38;2.00;;;5.20;99.90;;;3.59;100.00;100958.56;4995266;28;20498;-77
2023/03/04 05:51:41;;;;;;;16.17;2.55;;;5.20;99.90;;;3.57;100.00;100951.66;4978128;28;20094;-77
2023/03/04 05:54:07;;;;;;;11.85;1.70;;;5.20;99.90;;;3.59;100.00;100958.56;4993785;28;20579;-76
2023/03/04 05:56:32;;;;;;;11.10;1.75;;;5.20;99.90;;;3.60;100.00;100943.78;4985398;28;20030;-78
2023/03/04 05:58:59;;;;;;;12.77;2.08;;;5.20;99.90;;;3.59;100.00;100955.09;4997103;28;20046;-76
2023/03/04 06:01:25;;;;;;;13.05;2.08;;;5.20;99.90;;;3.57;100.00;100957.72;4982922;28;20069;-76
2023/03/04 06:03:51;;;;;;;14.82;2.28;;;5.20;99.90;;;3.58;100.00;100961.19;4978212;28;20034;-77
2023/03/04 06:06:17;;;;;;;13.23;1.83;;;5.20;99.90;;;3.58;100.00;100953.38;4970264;28;20038;-77
2023/03/04 06:08:43;;;;;;;16.13;2.70;;;5.20;99.90;;;3.58;99.98;100963.78;4989263;28;20038;-77
2023/03/04 06:11:09;;;;;;;11.70;1.90;;;5.20;99.90;;;3.54;99.30;100964.69;4983678;28;20043;-77
2023/03/04 06:13:37;;;;;;;13.52;1.95;;;5.20;99.90;;;3.55;98.81;100969.91;4989697;28;20030;-77
2023/03/04 06:16:06;;;;;;;14.30;2.30;;;5.20;99.90;;;3.54;98.03;100964.69;4995358;28;20088;-78
2023/03/04 06:18:32;;;;;;;14.75;2.15;;;5.20;99.90;;;3.52;97.45;100967.34;4974274;28;20034;-77
2023/03/04 06:21:02;;;;;;;12.10;1.98;;;5.10;99.90;;;3.51;96.55;100964.75;4989765;28;20046;-77
2023/03/04 06:23:32;;;;;;;15.32;2.45;;;5.20;99.90;;;3.49;96.17;100962.16;4983001;28;20487;-77
2023/03/04 06:25:59;;;;;;;13.60;2.08;;;5.10;99.90;;;3.49;96.44;100965.63;4971848;28;20038;-77
2023/03/04 06:28:26;;;;;;;16.48;2.55;;;5.10;99.90;;;3.51;95.96;100972.56;4991256;28;20049;-77
2023/03/04 06:30:54;;;;;;;17.10;2.22;;;5.10;99.90;;;3.54;95.96;100973.38;4999976;28;20065;-77
2023/03/04 06:33:20;;;;;;;16.20;2.53;;;5.20;99.90;;;3.55;96.02;100979.47;4993500;28;20546;-77
2023/03/04 06:35:48;;;;;;;21.17;3.28;;;5.10;99.90;;;3.53;95.94;100983.81;4975025;28;20045;-78
2023/03/04 06:38:14;;;;;;;20.25;2.95;;;5.10;99.90;;;3.44;96.19;100969.19;4982216;28;20034;-78
2023/03/04 06:40:40;;;;;;;18.88;2.58;;;5.10;99.90;;;3.46;96.24;100980.44;5002727;28;20535;-78
2023/03/04 06:43:06;;;;;;;15.00;2.72;;;5.10;99.90;;;3.45;96.50;100982.16;4986896;28;20144;-78
2023/03/04 06:45:32;;;;;;;17.58;3.30;;;5.10;99.90;;;3.44;96.59;100977.84;4958271;28;20610;-76
2023/03/04 06:47:57;;;;;;;14.48;2.42;;;5.10;99.90;;;3.42;96.20;100977.00;4981710;28;20065;-77
2023/03/04 06:50:23;;;;;;;22.90;3.15;;;5.10;99.90;;;3.46;96.29;100996.91;4981095;28;20391;-77
2023/03/04 06:52:49;;;;;;;27.00;4.28;;;5.10;99.90;;;3.51;95.99;100988.19;4988829;28;20122;-76
2023/03/04 06:55:15;;;;;;;21.35;2.75;;;5.10;99.90;;;3.49;95.90;100988.19;4986969;28;20565;-76
2023/03/04 06:57:41;;;;;;;19.10;3.33;;;5.10;99.90;;;3.44;95.83;100985.66;4975651;28;20042;-77
2023/03/04 07:00:10;;;;;;;26.65;3.13;;;5.10;99.90;;;3.41;96.08;100988.31;4995029;28;20050;-77
2023/03/04 07:02:35;;;;;;;28.35;3.05;;;5.10;99.90;;;3.43;96.03;100991.72;4993604;28;20064;-77
2023/03/04 07:05:01;;;;;;;21.83;2.83;;;5.10;99.90;;;3.49;96.06;100996.00;4973266;28;20546;-77
2023/03/04 07:07:27;;;;;;;17.92;3.13;;;5.10;99.90;;;3.47;95.95;100992.56;4985315;28;20035;-77
2023/03/04 07:09:53;;;;;;;28.25;5.05;;;5.10;99.90;;;3.47;95.74;100998.63;4994520;28;20035;-78
2023/03/04 07:12:21;;;;;;;16.77;2.97;;;5.10;99.90;;;3.47;95.53;100998.63;4971451;28;20030;-77
2023/03/04 07:14:47;;;;;;;25.77;3.55;;;5.10;99.90;;;3.52;95.59;100989.91;4980905;28;20503;-77
2023/03/04 07:17:13;;;;;;;19.60;3.10;;;5.10;99.90;;;3.47;95.08;101002.97;4991018;28;20104;-77
2023/03/04 07:19:40;;;;;;;26.42;3.58;;;5.10;99.90;;;3.51;95.38;101003.81;5002627;28;20649;-77
2023/03/04 07:22:06;;;;;;;13.98;2.67;;;5.10;99.90;;;3.54;95.46;100994.19;4977445;28;20035;-77
2023/03/04 07:24:32;;;;;;;17.70;2.80;;;5.10;99.90;;;3.53;95.52;100997.69;4984491;28;20039;-76
2023/03/04 07:26:58;;;;;;;15.48;2.58;;;5.10;99.90;;;3.53;95.42;101007.25;4987464;28;20411;-77
2023/03/04 07:29:24;;;;;;;20.77;2.63;;;5.20;99.90;;;3.56;95.23;100997.63;4980816;28;20034;-78
2023/03/04 07:31:50;;;;;;;28.00;3.65;;;5.20;99.90;;;3.60;94.90;101004.53;4978593;28;20034;-76
2023/03/04 07:34:15;;;;;;;24.23;3.67;;;5.20;99.90;;;3.61;95.32;100995.00;5007260;28;20150;-76
2023/03/04 07:36:41;;;;;;;34.60;4.15;;;5.20;99.90;;;3.60;94.84;101001.94;4995385;28;20060;-76
2023/03/04 07:39:10;;;;;;;19.90;2.78;;;5.20;99.90;;;3.59;94.73;101009.78;4985821;28;20131;-77
2023/03/04 07:41:38;;;;;;;16.67;2.80;;;5.20;99.90;;;3.59;94.73;101007.19;4995331;28;20080;-77
2023/03/04 07:44:06;;;;;;;24.77;3.65;;;5.20;99.90;;;3.59;94.70;101008.03;4970334;28;20121;-77
2023/03/04 07:46:32;;;;;;;23.23;2.85;;;5.20;99.90;;;3.60;94.54;101012.34;5004391;28;20039;-76
2023/03/04 07:48:58;;;;;;;20.00;3.33;;;5.20;99.90;;;3.62;94.43;101017.53;4970941;28;20089;-77
2023/03/04 07:51:26;;;;;;;17.75;2.63;;;5.20;99.90;;;3.64;94.46;101010.56;4998006;28;20030;-76
2023/03/04 07:53:57;;;;;;;19.98;3.47;;;5.20;99.90;;;3.66;94.44;101014.88;4972158;28;20038;-77
2023/03/04 07:56:27;;;;;;;33.35;3.45;;;5.20;99.90;;;3.66;94.59;101014.88;4960973;28;20065;-77
2023/03/04 07:58:55;;;;;;;17.98;3.15;;;5.30;99.90;;;3.71;94.08;101017.41;4989494;28;20037;-77
2023/03/04 08:01:25;;;;;;;27.08;4.07;;;5.30;99.90;;;3.80;94.00;101012.09;4981761;28;20121;-77
2023/03/04 08:03:51;;;;;;;27.65;4.78;;;5.40;99.90;;;3.89;93.76;101011.09;4962719;28;20106;-77
2023/03/04 08:06:19;;;;;;;27.25;3.45;;;5.70;99.90;;;3.94;93.37;101016.25;4972367;28;20034;-77
2023/03/04 08:08:45;;;;;;;18.58;3.65;;;5.40;99.90;;;3.90;93.15;101011.06;4993903;28;20038;-77
2023/03/04 08:11:19;;;;;;;25.33;3.55;;;5.40;99.90;;;3.90;92.92;101008.44;4977580;28;20030;-77
2023/03/04 08:13:45;;;;;;;27.17;4.40;;;5.40;99.90;;;3.90;92.96;101011.06;5011915;28;20031;-78
2023/03/04 08:16:17;;;;;;;18.08;3.42;;;5.40;99.90;;;3.94;92.63;101011.88;4995713;28;20026;-77
2023/03/04 08:18:50;;;;;;;17.45;2.78;;;5.50;99.90;;;3.95;92.91;101016.19;4996319;28;20764;-77
2023/03/04 08:21:20;;;;;;;20.77;2.67;;;5.50;99.90;;;3.88;92.42;101012.81;4979550;28;20068;-78
2023/03/04 08:23:47;;;;;;;27.02;3.40;;;5.50;99.90;;;3.97;92.51;100997.94;4995276;28;20026;-76
2023/03/04 08:26:20;;;;;;;22.40;3.58;;;5.50;99.90;;;4.01;92.12;101010.03;4971361;28;20035;-77
2023/03/04 08:28:47;;;;;;;26.70;3.40;;;5.50;99.90;;;4.00;92.31;101005.72;4981254;28;20042;-77
2023/03/04 08:31:17;;;;;;;30.88;3.80;;;5.50;99.90;;;3.99;92.46;101014.41;4970084;28;20030;-77
2023/03/04 08:33:44;;;;;;;32.67;3.10;;;5.50;99.90;;;4.01;92.21;101013.50;4994948;28;20038;-77
2023/03/04 08:36:10;;;;;;;24.13;3.40;;;5.60;99.90;;;4.05;92.08;101007.38;4993773;28;20042;-77
2023/03/04 08:38:36;;;;;;;16.08;3.53;;;5.60;99.90;;;4.05;92.31;101011.72;4978841;28;20035;-77
2023/03/04 08:41:03;;;;;;;36.83;4.43;;;5.60;99.90;;;4.15;92.46;101018.53;4979133;28;20574;-76
2023/03/04 08:43:32;;;;;;;27.92;3.47;;;5.70;99.90;;;4.19;92.41;101020.19;4971778;28;20695;-76
2023/03/04 08:45:57;;;;;;;24.38;3.72;;;5.70;99.90;;;4.22;92.07;101020.16;4994609;28;20038;-76
2023/03/04 08:48:24;;;;;;;23.00;2.92;;;5.70;99.90;;;4.20;91.68;101028.88;4975747;28;20049;-77
2023/03/04 08:50:51;;;;;;;16.83;3.20;;;5.70;99.90;;;4.17;91.81;101021.97;4974754;28;20117;-77
2023/03/04 08:53:19;;;;;;;19.40;3.90;;;5.70;99.90;;;4.11;91.22;101025.53;4992883;28;20038;-77
2023/03/04 08:55:45;;;;;;;16.48;2.38;;;5.70;99.90;;;4.16;91.31;101025.44;4984480;28;20130;-77
2023/03/04 08:58:12;;;;;;;22.95;3.45;;;5.70;99.90;;;4.11;90.76;101024.66;4962143;28;20030;-78
2023/03/04 09:00:41;;;;;;;14.88;2.67;;;5.60;99.90;;;4.06;90.51;101036.88;4986972;28;20058;-77
2023/03/04 09:03:10;;;;;;;24.00;3.25;;;5.60;99.90;;;4.07;90.33;101030.81;4977239;28;20038;-77
2023/03/04 09:05:36;;;;;;;17.80;2.83;;;5.70;99.90;;;4.15;91.04;101044.59;4986978;28;20050;-77
2023/03/04 09:08:02;;;;;;;19.30;3.42;;;5.70;99.90;;;4.22;90.88;101041.00;4967239;28;20125;-77
2023/03/04 09:10:30;;;;;;;31.77;3.83;;;5.70;99.90;;;4.21;91.02;101038.41;4971835;28;20034;-77
2023/03/04 09:12:58;;;;;;;22.80;3.45;;;5.70;99.90;;;4.19;90.79;101038.44;4974184;28;20031;-77
2023/03/04 09:15:34;;;;;;;20.55;4.10;;;5.70;99.90;;;4.23;90.47;101041.84;4986350;28;20085;-77
2023/03/04 09:18:06;;;;;;;24.38;2.63;;;5.80;99.90;;;4.28;90.87;101045.28;4984598;28;20041;-77
2023/03/04 09:20:34;;;;;;;17.67;2.92;;;5.80;99.90;;;4.19;90.28;101043.66;4978239;28;20043;-78
2023/03/04 09:23:01;;;;;;;21.13;3.50;;;5.70;99.90;;;4.22;90.26;101048.81;4968510;28;20045;-78
2023/03/04 09:25:27;;;;;;;23.77;3.03;;;5.80;99.90;;;4.36;90.39;101052.94;4962062;28;20125;-77
2023/03/04 09:27:56;;;;;;;19.42;2.55;;;5.80;99.90;;;4.28;90.07;101053.94;4991520;28;20475;-77
2023/03/04 09:30:22;;;;;;;16.08;2.50;;;5.80;99.90;;;4.29;90.16;101054.78;4987162;28;20038;-76
2023/03/04 09:32:49;;;;;;;30.40;3.67;;;5.90;99.90;;;4.36;90.16;101060.78;4972417;28;20061;-76
2023/03/04 09:35:15;;;;;;;20.23;3.40;;;5.90;99.90;;;4.35;89.99;101059.91;5002795;28;20049;-76
2023/03/04 09:37:45;;;;;;;24.63;3.47;;;5.90;99.90;;;4.37;90.39;101080.75;4998068;28;20028;-77
2023/03/04 09:40:23;;;;;;;18.48;3.20;;;5.80;99.90;;;4.24;89.90;101073.13;4958628;28;20031;-77
2023/03/04 09:43:04;;;;;;;29.58;2.85;;;5.80;99.90;;;4.25;90.75;101076.56;5001925;28;20113;-77
2023/03/04 09:45:43;;;;;;;26.75;2.38;;;5.80;99.90;;;4.17;90.59;101068.00;5003832;28;20612;-77
2023/03/04 09:48:18;;;;;;;18.63;2.88;;;5.80;99.90;;;4.15;90.87;101067.16;4974593;28;20054;-77
2023/03/04 09:51:38;;;;;;;21.58;3.10;;;5.70;99.90;;;4.09;91.33;101068.13;4980505;28;20066;-77
2023/03/04 09:54:46;;;;;;;24.08;4.05;;;5.70;99.90;;;4.14;92.56;101068.91;4986380;28;20039;-77
2023/03/04 09:57:50;;;;;;;23.30;3.45;;;5.70;99.90;;;4.11;93.02;101076.78;4980278;28;20043;-77
2023/03/04 10:00:40;;;;;;;16.98;2.90;;;5.70;99.90;;;4.04;92.31;101073.41;5015176;28;20042;-77
2023/03/04 10:03:19;;;;;;;25.70;3.17;;;5.60;99.90;;;3.97;92.25;101082.19;5009986;28;20046;-77
2023/03/04 10:06:06;;;;;;;19.27;3.42;;;5.60;99.90;;;4.00;91.90;101078.69;4972943;28;20450;-77
2023/03/04 10:08:53;;;;;;;21.23;4.25;;;5.50;99.90;;;3.94;91.59;101077.03;4976585;28;20465;-77
2023/03/04 10:11:32;;;;;;;27.98;3.45;;;5.50;99.90;;;3.79;91.11;101095.47;4965024;28;20073;-78
2023/03/04 10:14:20;;;;;;;21.48;2.90;;;5.50;99.90;;;3.87;92.30;101086.66;4970614;28;20027;-81
2023/03/04 10:17:13;;;;;;;16.17;2.65;;;5.50;99.90;;;3.86;92.07;101086.69;4985139;28;20026;-77
2023/03/04 10:19:50;;;;;;;19.50;2.88;;;5.40;99.90;;;3.77;91.21;101090.25;4940582;28;20147;-77